createdAt,value
2022-10-31T00:01:24.175Z,9.38
2022-10-31T00:03:51.139Z,10.82
2022-10-31T00:06:21.089Z,10.87
2022-10-31T00:09:00.082Z,10.77
2022-10-31T00:11:27.664Z,11.60
2022-10-31T00:13:55.146Z,11.43
2022-10-31T00:16:25.555Z,11.80
2022-10-31T00:18:57.914Z,11.53
2022-10-31T00:21:26.487Z,11.63
2022-10-31T00:23:53.738Z,12.38
2022-10-31T00:26:20.947Z,11.63
2022-10-31T00:28:48.216Z,10.82
2022-10-31T00:31:15.827Z,11.33
2022-10-31T00:33:43.225Z,10.57
2022-10-31T00:36:16.004Z,10.85
2022-10-31T00:38:43.638Z,10.27
2022-10-31T00:41:16.986Z,11.43
2022-10-31T00:43:44.828Z,11.20
2022-10-31T00:46:13.254Z,12.10
2022-10-31T00:48:40.461Z,11.88
2022-10-31T00:51:07.767Z,12.30
2022-10-31T00:53:34.927Z,11.48
2022-10-31T00:56:01.799Z,11.47
2022-10-31T00:58:28.688Z,12.45
2022-10-31T01:00:56.307Z,12.50
2022-10-31T01:03:30.275Z,12.38
2022-10-31T01:06:12.634Z,11.63
2022-10-31T01:08:40.115Z,11.70
2022-10-31T01:11:23.921Z,11.73
2022-10-31T01:13:55.200Z,12.35
2022-10-31T01:16:26.234Z,12.38
2022-10-31T01:18:54.227Z,12.23
2022-10-31T01:21:25.213Z,11.33
2022-10-31T01:23:55.473Z,11.57
2022-10-31T01:26:28.918Z,12.00
2022-10-31T01:28:59.221Z,11.55
2022-10-31T01:31:30.819Z,12.38
2022-10-31T01:33:58.724Z,11.30
2022-10-31T01:36:32.337Z,11.45
2022-10-31T01:39:03.070Z,11.43
2022-10-31T01:41:33.538Z,11.82
2022-10-31T01:44:12.989Z,12.02
2022-10-31T01:47:08.521Z,11.37
2022-10-31T01:49:56.122Z,10.63
2022-10-31T01:52:37.674Z,10.70
2022-10-31T01:55:07.950Z,10.88
2022-10-31T01:57:39.164Z,10.88
2022-10-31T02:00:10.632Z,10.80
2022-10-31T02:02:37.613Z,10.90
2022-10-31T02:05:10.750Z,11.00
2022-10-31T02:07:55.678Z,9.93
2022-10-31T02:10:24.162Z,10.45
2022-10-31T02:12:57.775Z,10.33
2022-10-31T02:15:25.063Z,11.48
2022-10-31T02:17:52.900Z,10.43
2022-10-31T02:20:26.324Z,10.88
2022-10-31T02:23:36.527Z,11.27
2022-10-31T02:26:18.457Z,10.93
2022-10-31T02:29:09.868Z,11.60
2022-10-31T02:32:02.183Z,10.82
2022-10-31T02:34:55.766Z,10.98
2022-10-31T02:37:51.194Z,11.20
2022-10-31T02:40:31.885Z,10.00
2022-10-31T02:43:29.988Z,10.75
2022-10-31T02:46:16.285Z,10.43
2022-10-31T02:48:46.031Z,10.68
2022-10-31T02:51:13.742Z,10.90
2022-10-31T02:53:40.727Z,11.40
2022-10-31T02:56:17.047Z,10.52
2022-10-31T02:59:01.983Z,11.20
2022-10-31T03:02:13.917Z,10.60
2022-10-31T03:05:23.967Z,10.73
2022-10-31T03:08:09.795Z,9.77
2022-10-31T03:10:45.263Z,9.48
2022-10-31T03:13:25.407Z,11.30
2022-10-31T03:16:07.425Z,10.02
2022-10-31T03:18:44.393Z,10.48
2022-10-31T03:21:21.072Z,11.10
2022-10-31T03:23:51.846Z,11.20
2022-10-31T03:26:21.105Z,10.27
2022-10-31T03:29:03.274Z,10.57
2022-10-31T03:31:39.850Z,10.23
2022-10-31T03:34:09.123Z,10.30
2022-10-31T03:36:39.696Z,11.02
2022-10-31T03:39:11.654Z,10.82
2022-10-31T03:41:46.090Z,10.90
2022-10-31T03:44:20.002Z,9.32
2022-10-31T03:46:47.254Z,10.40
2022-10-31T03:49:15.175Z,10.35
2022-10-31T03:52:00.419Z,10.80
2022-10-31T03:54:44.552Z,10.73
2022-10-31T03:57:39.992Z,11.20
2022-10-31T04:00:13.681Z,9.90
2022-10-31T04:03:00.618Z,11.30
2022-10-31T04:05:29.530Z,10.30
2022-10-31T04:07:58.788Z,9.70
2022-10-31T04:10:31.993Z,10.20
2022-10-31T04:13:09.381Z,9.80
2022-10-31T04:15:38.431Z,10.30
2022-10-31T04:18:06.566Z,9.77
2022-10-31T04:20:36.891Z,10.85
2022-10-31T04:23:04.907Z,10.85
2022-10-31T04:25:32.090Z,11.20
2022-10-31T04:27:59.326Z,10.98
2022-10-31T04:30:26.482Z,10.30
2022-10-31T04:32:53.354Z,10.70
2022-10-31T04:35:20.240Z,9.95
2022-10-31T04:37:47.124Z,10.63
2022-10-31T04:40:14.046Z,10.23
2022-10-31T04:42:40.923Z,10.10
2022-10-31T04:45:08.195Z,10.00
2022-10-31T04:47:35.107Z,9.90
2022-10-31T04:50:03.101Z,10.73
2022-10-31T04:52:30.009Z,10.13
2022-10-31T04:54:56.883Z,9.30
2022-10-31T04:57:23.779Z,9.90
2022-10-31T04:59:50.781Z,10.10
2022-10-31T05:02:17.659Z,9.10
2022-10-31T05:04:44.583Z,9.50
2022-10-31T05:07:11.509Z,10.57
2022-10-31T05:09:39.158Z,9.63
2022-10-31T05:12:06.203Z,9.48
2022-10-31T05:14:33.074Z,9.83
2022-10-31T05:16:59.934Z,10.15
2022-10-31T05:19:26.797Z,9.70
2022-10-31T05:21:53.688Z,10.32
2022-10-31T05:24:22.585Z,10.52
2022-10-31T05:26:50.452Z,9.67
2022-10-31T05:29:17.509Z,10.93
2022-10-31T05:31:44.387Z,9.70
2022-10-31T05:34:11.277Z,10.50
2022-10-31T05:36:38.213Z,11.30
2022-10-31T05:39:05.113Z,11.50
2022-10-31T05:41:32.155Z,11.07
2022-10-31T05:43:59.023Z,12.32
2022-10-31T05:46:25.960Z,12.48
2022-10-31T05:48:52.862Z,13.95
2022-10-31T05:51:19.738Z,13.37
2022-10-31T05:53:48.424Z,15.05
2022-10-31T05:56:15.302Z,14.70
2022-10-31T05:58:42.204Z,14.52
2022-10-31T06:01:09.141Z,16.00
2022-10-31T06:03:36.069Z,15.80
2022-10-31T06:06:03.237Z,14.90
2022-10-31T06:08:30.138Z,14.93
2022-10-31T06:10:57.136Z,14.57
2022-10-31T06:13:24.089Z,14.70
2022-10-31T06:15:51.075Z,14.27
2022-10-31T06:18:17.989Z,13.90
2022-10-31T06:20:44.867Z,13.13
2022-10-31T06:23:11.850Z,13.63
2022-10-31T06:25:38.777Z,14.07
2022-10-31T06:28:06.103Z,12.70
2022-10-31T06:30:33.106Z,12.95
2022-10-31T06:33:05.187Z,13.07
2022-10-31T06:35:32.991Z,12.68
2022-10-31T06:38:00.625Z,13.63
2022-10-31T06:40:27.848Z,14.30
2022-10-31T06:43:00.080Z,13.88
2022-10-31T06:45:27.589Z,14.13
2022-10-31T06:48:16.068Z,14.68
2022-10-31T06:50:43.212Z,14.90
2022-10-31T06:53:12.139Z,14.23
2022-10-31T06:55:39.399Z,14.68
2022-10-31T06:58:06.801Z,14.80
2022-10-31T07:00:34.435Z,17.00
2022-10-31T07:03:05.907Z,16.83
2022-10-31T07:05:33.200Z,15.33
2022-10-31T07:08:05.927Z,16.25
2022-10-31T07:10:39.083Z,16.13
2022-10-31T07:13:13.372Z,16.27
2022-10-31T07:15:43.086Z,15.93
2022-10-31T07:18:12.833Z,16.77
2022-10-31T07:20:39.758Z,17.15
2022-10-31T07:23:06.970Z,15.70
2022-10-31T07:25:33.983Z,16.50
2022-10-31T07:28:01.211Z,16.00
2022-10-31T07:30:28.425Z,16.43
2022-10-31T07:32:56.304Z,17.25
2022-10-31T07:35:27.553Z,19.52
2022-10-31T07:37:55.636Z,18.45
2022-10-31T07:40:23.977Z,18.20
2022-10-31T07:42:53.456Z,19.17
2022-10-31T07:45:22.286Z,18.13
2022-10-31T07:47:52.294Z,19.75
2022-10-31T07:50:28.036Z,20.27
2022-10-31T07:53:07.996Z,20.25
2022-10-31T07:55:35.561Z,18.23
2022-10-31T07:58:05.994Z,20.92
2022-10-31T08:00:35.505Z,19.60
2022-10-31T08:03:08.429Z,19.95
2022-10-31T08:05:36.318Z,21.23
2022-10-31T08:08:05.027Z,20.10
2022-10-31T08:10:33.008Z,21.50
2022-10-31T08:13:12.042Z,21.15
2022-10-31T08:15:42.103Z,20.83
2022-10-31T08:18:14.892Z,20.15
2022-10-31T08:20:45.477Z,22.07
2022-10-31T08:23:14.516Z,19.95
2022-10-31T08:25:42.727Z,23.23
2022-10-31T08:28:11.999Z,25.08
2022-10-31T08:30:40.420Z,22.00
2022-10-31T08:33:14.388Z,23.30
2022-10-31T08:35:42.288Z,22.60
2022-10-31T08:38:12.311Z,24.70
2022-10-31T08:40:40.113Z,24.10
2022-10-31T08:43:15.044Z,24.63
2022-10-31T08:45:43.749Z,23.13
2022-10-31T08:48:13.818Z,23.60
2022-10-31T08:50:41.047Z,24.58
2022-10-31T08:53:15.308Z,25.33
2022-10-31T08:55:43.972Z,24.83
2022-10-31T08:58:14.524Z,21.10
2022-10-31T09:00:42.281Z,24.33
2022-10-31T09:03:21.811Z,24.25
2022-10-31T09:05:49.146Z,20.80
2022-10-31T09:08:17.328Z,25.83
2022-10-31T09:10:45.849Z,27.77
2022-10-31T09:13:16.674Z,28.38
2022-10-31T09:15:46.747Z,26.02
2022-10-31T09:18:15.826Z,25.48
2022-10-31T09:20:45.023Z,28.92
2022-10-31T09:23:20.849Z,26.17
2022-10-31T09:25:51.025Z,25.85
2022-10-31T09:28:22.003Z,25.92
2022-10-31T09:30:52.022Z,27.35
2022-10-31T09:33:20.033Z,25.45
2022-10-31T09:35:47.081Z,24.67
2022-10-31T09:38:19.830Z,26.08
2022-10-31T09:40:56.181Z,26.10
2022-10-31T09:43:57.700Z,27.80
2022-10-31T09:46:58.042Z,29.00
2022-10-31T09:50:02.008Z,26.73
2022-10-31T09:52:33.311Z,24.70
2022-10-31T09:55:26.132Z,27.35
2022-10-31T09:57:53.336Z,24.90
2022-10-31T10:00:23.250Z,26.60
2022-10-31T10:02:59.041Z,26.70
2022-10-31T10:05:35.255Z,26.13
2022-10-31T10:08:15.366Z,25.02
2022-10-31T10:11:25.350Z,27.88
2022-10-31T10:14:16.257Z,25.92
2022-10-31T10:17:23.266Z,25.23
2022-10-31T10:20:29.550Z,26.52
2022-10-31T10:23:30.887Z,26.98
2022-10-31T10:26:18.283Z,23.85
2022-10-31T10:28:53.014Z,21.48
2022-10-31T10:31:29.322Z,21.80
2022-10-31T10:34:06.565Z,21.13
2022-10-31T10:36:59.149Z,18.77
2022-10-31T10:39:39.359Z,19.27
2022-10-31T10:42:32.785Z,19.83
2022-10-31T10:45:18.822Z,17.90
2022-10-31T10:47:56.234Z,17.40
2022-10-31T10:50:33.619Z,17.73
2022-10-31T10:53:36.488Z,19.27
2022-10-31T10:56:40.826Z,15.20
2022-10-31T10:59:14.487Z,16.03
2022-10-31T11:01:43.220Z,15.68
2022-10-31T11:04:31.490Z,16.83
2022-10-31T11:07:10.793Z,14.20
2022-10-31T11:09:38.953Z,15.23
2022-10-31T11:12:31.462Z,15.03
2022-10-31T11:15:24.486Z,15.70
2022-10-31T11:17:55.323Z,14.52
2022-10-31T11:20:31.273Z,14.00
2022-10-31T11:23:22.310Z,14.40
2022-10-31T11:25:52.342Z,14.07
2022-10-31T11:28:19.277Z,14.60
2022-10-31T11:30:50.354Z,14.48
2022-10-31T11:33:36.578Z,15.10
2022-10-31T11:36:25.570Z,15.32
2022-10-31T11:38:54.031Z,14.47
2022-10-31T11:41:34.757Z,15.80
2022-10-31T11:44:17.465Z,16.73
2022-10-31T11:46:49.883Z,15.98
2022-10-31T11:49:36.822Z,15.82
2022-10-31T11:52:14.962Z,16.77
2022-10-31T11:55:12.377Z,17.13
2022-10-31T11:57:52.899Z,17.50
2022-10-31T12:00:30.549Z,17.80
2022-10-31T12:03:25.027Z,18.02
2022-10-31T12:06:18.775Z,19.23
2022-10-31T12:08:46.636Z,19.80
2022-10-31T12:11:36.565Z,19.23
2022-10-31T12:14:35.338Z,18.75
2022-10-31T12:17:25.988Z,18.23
2022-10-31T12:20:08.098Z,18.10
2022-10-31T12:22:49.619Z,19.20
2022-10-31T12:25:42.087Z,21.63
2022-10-31T12:28:44.921Z,19.95
2022-10-31T12:31:42.451Z,19.75
2022-10-31T12:34:46.178Z,18.67
2022-10-31T12:38:04.077Z,19.38
2022-10-31T12:40:57.261Z,18.88
2022-10-31T12:43:56.561Z,18.58
2022-10-31T12:46:58.057Z,19.27
2022-10-31T12:49:53.280Z,19.17
2022-10-31T12:52:32.231Z,19.63
2022-10-31T12:55:25.208Z,18.48
2022-10-31T12:58:00.430Z,19.25
2022-10-31T13:00:30.489Z,18.73
2022-10-31T13:03:23.255Z,18.87
2022-10-31T13:05:57.686Z,18.85
2022-10-31T13:08:36.875Z,17.98
2022-10-31T13:11:16.982Z,19.00
2022-10-31T13:14:12.447Z,19.48
2022-10-31T13:16:45.176Z,20.00
2022-10-31T13:19:22.432Z,18.58
2022-10-31T13:22:05.232Z,19.63
2022-10-31T13:24:42.725Z,19.58
2022-10-31T13:27:21.747Z,19.52
2022-10-31T13:30:05.105Z,21.00
2022-10-31T13:32:57.350Z,20.85
2022-10-31T13:35:33.071Z,21.65
2022-10-31T13:38:41.127Z,20.48
2022-10-31T13:41:36.155Z,20.85
2022-10-31T13:44:14.533Z,21.60
2022-10-31T13:49:30.649Z,22.05
2022-10-31T13:52:13.125Z,22.25
2022-10-31T13:54:42.224Z,22.55
2022-10-31T13:57:19.919Z,22.07
2022-10-31T14:00:16.124Z,21.88
2022-10-31T14:02:50.039Z,22.20
2022-10-31T14:05:34.703Z,20.52
2022-10-31T14:08:05.088Z,21.98
2022-10-31T14:10:50.935Z,20.40
2022-10-31T14:13:42.551Z,22.77
2022-10-31T14:16:31.028Z,21.92
2022-10-31T14:19:09.291Z,19.58
2022-10-31T14:21:43.129Z,22.00
2022-10-31T14:24:31.724Z,20.13
2022-10-31T14:27:04.005Z,20.77
2022-10-31T14:29:34.079Z,22.80
2022-10-31T14:32:20.871Z,22.85
2022-10-31T14:35:01.405Z,21.13
2022-10-31T14:37:34.832Z,23.90
2022-10-31T14:40:44.886Z,21.13
2022-10-31T14:43:37.963Z,22.42
2022-10-31T14:46:33.559Z,23.05
2022-10-31T14:49:11.943Z,20.92
2022-10-31T14:51:45.162Z,20.83
2022-10-31T14:54:31.228Z,22.23
2022-10-31T14:57:13.649Z,23.33
2022-10-31T14:59:56.838Z,21.88
2022-10-31T15:02:39.160Z,23.00
2022-10-31T15:05:12.254Z,22.87
2022-10-31T15:07:59.563Z,21.67
2022-10-31T15:10:32.873Z,22.55
2022-10-31T15:13:20.853Z,22.25
2022-10-31T15:15:52.016Z,22.75
2022-10-31T15:18:27.509Z,21.07
2022-10-31T15:20:57.167Z,21.52
2022-10-31T15:23:30.110Z,25.35
2022-10-31T15:26:06.167Z,21.65
2022-10-31T15:28:33.290Z,23.42
2022-10-31T15:31:03.036Z,22.67
2022-10-31T15:33:47.878Z,21.42
2022-10-31T15:36:29.207Z,21.40
2022-10-31T15:38:58.682Z,22.45
2022-10-31T15:41:56.450Z,22.17
2022-10-31T15:44:30.853Z,22.67
2022-10-31T15:47:19.591Z,22.95
2022-10-31T15:49:54.984Z,22.13
2022-10-31T15:52:41.106Z,21.95
2022-10-31T15:55:10.651Z,20.67
2022-10-31T15:57:43.946Z,22.47
2022-10-31T16:00:34.617Z,20.20
2022-10-31T16:03:16.564Z,20.48
2022-10-31T16:05:52.895Z,20.50
2022-10-31T16:08:32.142Z,21.15
2022-10-31T16:11:07.953Z,20.07
2022-10-31T16:13:42.198Z,20.48
2022-10-31T16:16:35.726Z,20.05
2022-10-31T16:19:06.982Z,20.20
2022-10-31T16:21:38.394Z,19.48
2022-10-31T16:24:25.833Z,19.20
2022-10-31T16:26:59.106Z,18.30
2022-10-31T16:29:40.621Z,20.48
2022-10-31T16:32:36.341Z,19.00
2022-10-31T16:35:09.239Z,19.88
2022-10-31T16:37:39.687Z,19.70
2022-10-31T16:40:07.562Z,20.33
2022-10-31T16:42:34.463Z,20.30
2022-10-31T16:45:01.516Z,19.65
2022-10-31T16:47:28.660Z,19.90
2022-10-31T16:50:00.616Z,21.17
2022-10-31T16:52:28.342Z,21.15
2022-10-31T16:54:58.334Z,21.33
2022-10-31T16:57:30.912Z,20.48
2022-10-31T16:59:58.760Z,21.40
2022-10-31T17:02:26.153Z,21.00
2022-10-31T17:04:55.799Z,20.75
2022-10-31T17:07:23.857Z,25.75
2022-10-31T17:09:50.746Z,22.13
2022-10-31T17:12:23.005Z,21.83
2022-10-31T17:14:52.915Z,23.83
2022-10-31T17:17:19.813Z,24.15
2022-10-31T17:19:46.816Z,23.38
2022-10-31T17:22:15.519Z,23.63
2022-10-31T17:24:42.597Z,23.88
2022-10-31T17:27:09.718Z,22.37
2022-10-31T17:29:36.726Z,25.38
2022-10-31T17:32:04.202Z,25.65
2022-10-31T17:34:31.729Z,24.48
2022-10-31T17:36:58.722Z,25.10
2022-10-31T17:39:25.965Z,23.77
2022-10-31T17:41:53.056Z,24.73
2022-10-31T17:44:20.060Z,26.48
2022-10-31T17:46:47.032Z,25.35
2022-10-31T17:49:14.098Z,24.42
2022-10-31T17:51:40.979Z,24.77
2022-10-31T17:54:09.067Z,24.60
2022-10-31T17:56:35.985Z,24.90
2022-10-31T17:59:03.360Z,24.27
2022-10-31T18:01:30.464Z,25.50
2022-10-31T18:03:58.065Z,25.30
2022-10-31T18:06:24.935Z,26.50
2022-10-31T18:08:51.904Z,24.75
2022-10-31T18:11:21.973Z,23.90
2022-10-31T18:13:53.841Z,24.27
2022-10-31T18:16:20.737Z,22.73
2022-10-31T18:18:59.155Z,24.75
2022-10-31T18:21:26.598Z,23.63
2022-10-31T18:23:58.100Z,24.15
2022-10-31T18:26:27.007Z,24.55
2022-10-31T18:28:54.550Z,24.07
2022-10-31T18:31:21.793Z,23.13
2022-10-31T18:33:48.695Z,24.98
2022-10-31T18:36:15.613Z,22.38
2022-10-31T18:38:46.740Z,23.63
2022-10-31T18:41:15.138Z,23.70
2022-10-31T18:43:42.583Z,22.85
2022-10-31T18:46:14.733Z,22.92
2022-10-31T18:48:43.959Z,21.35
2022-10-31T18:51:14.279Z,21.20
2022-10-31T18:53:41.448Z,20.87
2022-10-31T18:56:10.890Z,22.88
2022-10-31T18:58:38.002Z,21.83
2022-10-31T19:01:10.821Z,21.35
2022-10-31T19:03:38.862Z,22.00
2022-10-31T19:06:07.448Z,21.57
2022-10-31T19:08:35.855Z,20.00
2022-10-31T19:11:12.744Z,20.00
2022-10-31T19:13:41.346Z,20.25
2022-10-31T19:16:13.879Z,19.40
2022-10-31T19:18:42.222Z,18.73
2022-10-31T19:21:16.102Z,19.15
2022-10-31T19:23:45.012Z,18.48
2022-10-31T19:26:12.845Z,16.85
2022-10-31T19:28:41.965Z,17.60
2022-10-31T19:31:09.689Z,18.13
2022-10-31T19:33:38.262Z,16.23
2022-10-31T19:36:10.485Z,16.58
2022-10-31T19:38:39.967Z,17.85
2022-10-31T19:41:13.613Z,16.17
2022-10-31T19:43:41.043Z,14.90
2022-10-31T19:46:17.537Z,16.23
2022-10-31T19:48:54.978Z,15.43
2022-10-31T19:51:22.478Z,15.02
2022-10-31T19:53:49.787Z,14.73
2022-10-31T19:56:19.606Z,14.77
2022-10-31T19:58:46.824Z,14.13
2022-10-31T20:01:20.715Z,15.10
2022-10-31T20:03:49.056Z,13.48
2022-10-31T20:06:23.100Z,13.00
2022-10-31T20:08:50.442Z,12.33
2022-10-31T20:11:17.575Z,11.52
2022-10-31T20:13:44.709Z,11.77
2022-10-31T20:16:15.075Z,11.35
2022-10-31T20:18:43.410Z,12.07
2022-10-31T20:21:14.341Z,10.60
2022-10-31T20:23:41.686Z,11.43
2022-10-31T20:26:11.577Z,12.48
2022-10-31T20:28:43.269Z,10.73
2022-10-31T20:31:16.373Z,11.77
2022-10-31T20:33:43.571Z,10.40
2022-10-31T20:36:10.636Z,10.07
2022-10-31T20:38:39.530Z,10.35
2022-10-31T20:41:09.373Z,10.02
2022-10-31T20:43:36.754Z,10.10
2022-10-31T20:46:13.361Z,9.57
2022-10-31T20:48:40.717Z,10.43
2022-10-31T20:53:49.613Z,9.55
2022-10-31T20:56:19.835Z,10.52
2022-10-31T20:58:47.240Z,9.47
2022-10-31T21:01:21.269Z,8.88
2022-10-31T21:03:49.750Z,8.77
2022-10-31T21:06:18.738Z,8.80
2022-10-31T21:08:46.135Z,9.55
2022-10-31T21:11:20.430Z,8.57
2022-10-31T21:13:49.292Z,8.18
2022-10-31T21:16:36.195Z,8.82
2022-10-31T21:19:04.721Z,8.18
2022-10-31T21:21:36.104Z,8.40
2022-10-31T21:24:14.955Z,8.90
2022-10-31T21:26:46.379Z,8.57
2022-10-31T21:29:15.231Z,8.35
2022-10-31T21:31:42.962Z,8.07
2022-10-31T21:34:10.364Z,8.02
2022-10-31T21:36:37.794Z,8.47
2022-10-31T21:39:07.050Z,8.18
2022-10-31T21:41:34.140Z,8.15
2022-10-31T21:44:01.014Z,9.00
2022-10-31T21:46:33.328Z,8.32
2022-10-31T21:49:03.644Z,7.47
2022-10-31T21:51:34.401Z,7.90
2022-10-31T21:54:20.729Z,8.10
2022-10-31T21:56:48.144Z,7.32
2022-10-31T21:59:15.044Z,7.40
2022-10-31T22:01:42.111Z,8.40
2022-10-31T22:04:09.442Z,7.93
2022-10-31T22:06:37.120Z,7.22
2022-10-31T22:09:07.017Z,7.32
2022-10-31T22:11:34.656Z,7.85
2022-10-31T22:14:02.677Z,8.30
2022-10-31T22:16:33.418Z,7.85
2022-10-31T22:19:05.068Z,7.93
2022-10-31T22:21:38.769Z,7.30
2022-10-31T22:24:07.726Z,7.57
2022-10-31T22:26:35.536Z,6.93
2022-10-31T22:29:05.623Z,7.03
2022-10-31T22:31:34.059Z,7.15
2022-10-31T22:34:01.466Z,7.55
2022-10-31T22:36:30.623Z,7.43
2022-10-31T22:38:58.476Z,6.90
2022-10-31T22:41:29.027Z,6.95
2022-10-31T22:43:57.175Z,6.43
2022-10-31T22:46:30.142Z,7.10
2022-10-31T22:49:01.169Z,6.90
2022-10-31T22:51:32.444Z,6.77
2022-10-31T22:54:00.041Z,5.47
2022-10-31T22:56:31.205Z,6.60
2022-10-31T22:58:59.223Z,6.70
2022-10-31T23:01:31.412Z,6.28
2022-10-31T23:03:58.762Z,6.60
2022-10-31T23:06:32.460Z,5.78
2022-10-31T23:09:03.175Z,5.97
2022-10-31T23:11:34.524Z,7.10
2022-10-31T23:14:15.740Z,5.80
2022-10-31T23:16:53.897Z,6.67
2022-10-31T23:19:29.712Z,6.65
2022-10-31T23:22:03.862Z,7.40
2022-10-31T23:24:45.357Z,6.78
2022-10-31T23:27:22.359Z,7.10
2022-10-31T23:29:56.477Z,6.43
2022-10-31T23:32:35.546Z,5.93
2022-10-31T23:35:09.247Z,7.20
2022-10-31T23:37:38.408Z,7.25
2022-10-31T23:40:08.054Z,6.60
2022-10-31T23:42:35.010Z,6.87
2022-10-31T23:45:02.078Z,7.35
2022-10-31T23:47:28.957Z,7.45
2022-10-31T23:49:55.825Z,7.10
2022-10-31T23:52:22.694Z,7.22
2022-10-31T23:54:49.633Z,7.07
2022-10-31T23:57:17.272Z,7.75
2022-10-31T23:59:44.371Z,7.72
